Time;durP1;ratioP1;P1;durP2;ratioP2;P2;SDS_P1;SDS_P2;PMS_P1;PMS_P2;Temp;Humidity;BMP_temperature;BMP_pressure;BME280_temperature;BME280_humidity;BME280_pressure;Samples;Min_cycle;Max_cycle;Signal;HPM_P1;HPM_P2
2022/07/19 00:00:01;;;;;;;0.47;0.35;;;16.20;99.90;;;;;;5024403;28;20052;-75
2022/07/19 00:02:26;;;;;;;2.30;0.55;;;16.20;99.90;;;;;;5016906;28;20054;-74
2022/07/19 00:04:52;;;;;;;0.82;0.70;;;16.10;99.90;;;;;;5013014;28;20046;-74
2022/07/19 00:07:18;;;;;;;0.75;0.65;;;16.00;99.90;;;;;;5013274;28;20062;-74
2022/07/19 00:09:43;;;;;;;0.90;0.65;;;15.90;99.90;;;;;;5013215;28;20045;-74
2022/07/19 00:12:12;;;;;;;0.63;0.63;;;15.90;99.90;;;;;;5025388;28;20471;-75
2022/07/19 00:14:38;;;;;;;0.55;0.50;;;15.80;99.90;;;;;;5032699;28;20088;-74
2022/07/19 00:17:03;;;;;;;1.50;1.10;;;15.70;99.90;;;;;;5032563;28;20084;-74
2022/07/19 00:19:29;;;;;;;0.80;0.63;;;15.70;99.90;;;;;;5032744;28;20049;-74
2022/07/19 00:21:54;;;;;;;2.25;0.80;;;15.70;99.90;;;;;;5022128;28;20388;-74
2022/07/19 00:24:20;;;;;;;0.50;0.50;;;15.70;99.90;;;;;;5015553;28;20042;-74
2022/07/19 00:26:46;;;;;;;0.10;0.10;;;15.60;99.90;;;;;;5016393;28;20077;-74
2022/07/19 00:29:11;;;;;;;0.93;0.75;;;15.60;99.90;;;;;;5016277;28;20461;-74
2022/07/19 00:31:37;;;;;;;7.15;0.75;;;15.60;99.90;;;;;;5016775;28;20048;-74
2022/07/19 00:34:02;;;;;;;0.25;0.20;;;15.60;99.90;;;;;;5016380;28;20127;-74
2022/07/19 00:36:28;;;;;;;0.17;0.17;;;15.50;99.90;;;;;;5016162;28;20169;-75
2022/07/19 00:38:54;;;;;;;1.65;0.80;;;15.50;99.90;;;;;;5016039;28;20053;-74
2022/07/19 00:41:20;;;;;;;0.50;0.30;;;15.40;99.90;;;;;;5016076;28;20086;-74
2022/07/19 00:43:45;;;;;;;0.25;0.17;;;15.40;99.90;;;;;;5015998;28;20048;-75
2022/07/19 00:46:16;;;;;;;0.22;0.22;;;15.40;99.90;;;;;;5015931;28;20534;-74
2022/07/19 00:48:42;;;;;;;0.55;0.38;;;15.40;99.90;;;;;;5015990;28;20133;-74
2022/07/19 00:51:12;;;;;;;0.43;0.28;;;15.40;99.90;;;;;;5016138;28;20447;-74
2022/07/19 00:53:39;;;;;;;0.30;0.30;;;15.40;99.90;;;;;;5015787;28;20126;-74
2022/07/19 00:56:07;;;;;;;2.22;0.75;;;15.40;99.90;;;;;;5015702;28;20038;-74
2022/07/19 00:58:34;;;;;;;1.48;0.73;;;15.20;99.90;;;;;;5018882;28;20464;-74
2022/07/19 01:01:01;;;;;;;0.38;0.20;;;16.30;99.90;;;;;;5035479;28;20050;-74
2022/07/19 01:03:27;;;;;;;0.20;0.20;;;15.00;99.90;;;;;;5035597;28;20104;-74
2022/07/19 01:05:53;;;;;;;0.30;0.30;;;15.10;99.90;;;;;;5035347;28;20499;-74
2022/07/19 01:08:18;;;;;;;0.68;0.32;;;15.00;99.90;;;;;;5035362;28;20041;-74
2022/07/19 01:10:44;;;;;;;0.40;0.30;;;15.00;99.90;;;;;;5035326;28;20427;-74
2022/07/19 01:13:13;;;;;;;0.22;0.22;;;14.90;99.90;;;;;;5016438;28;20089;-75
2022/07/19 01:15:40;;;;;;;0.38;0.38;;;14.90;99.90;;;;;;5015409;28;20046;-74
2022/07/19 01:18:06;;;;;;;0.28;0.28;;;14.90;99.90;;;;;;5015654;28;20054;-75
2022/07/19 01:20:32;;;;;;;1.42;0.85;;;14.90;99.90;;;;;;5015493;28;20386;-74
2022/07/19 01:22:58;;;;;;;1.20;1.08;;;14.90;99.90;;;;;;5021592;28;20381;-74
2022/07/19 01:25:26;;;;;;;0.77;0.65;;;14.80;99.90;;;;;;5035119;28;20065;-74
2022/07/19 01:27:52;;;;;;;0.47;0.32;;;14.90;99.90;;;;;;5035067;28;20056;-75
2022/07/19 01:30:20;;;;;;;0.13;0.10;;;14.80;99.90;;;;;;5023850;28;20049;-75
2022/07/19 01:32:47;;;;;;;1.63;1.17;;;14.80;99.90;;;;;;5024067;28;20049;-75
2022/07/19 01:35:13;;;;;;;0.65;0.55;;;14.90;99.90;;;;;;5014937;28;20045;-74
2022/07/19 01:37:39;;;;;;;3.50;1.65;;;14.80;99.90;;;;;;5014801;28;20042;-75
2022/07/19 01:40:08;;;;;;;2.47;0.85;;;14.90;99.90;;;;;;5015254;28;20050;-74
2022/07/19 01:42:34;;;;;;;1.80;1.20;;;14.80;99.90;;;;;;5013940;28;20499;-75
2022/07/19 01:44:59;;;;;;;0.40;0.30;;;14.80;99.90;;;;;;5014972;28;20042;-75
2022/07/19 01:47:25;;;;;;;1.35;1.10;;;14.90;99.90;;;;;;5014833;28;20038;-74
2022/07/19 01:49:51;;;;;;;1.02;0.52;;;14.80;99.90;;;;;;5014844;28;20129;-74
2022/07/19 01:52:17;;;;;;;0.28;0.28;;;14.80;99.90;;;;;;5027784;28;20480;-75
2022/07/19 01:54:43;;;;;;;0.90;0.88;;;14.80;99.90;;;;;;5034466;28;20045;-74
2022/07/19 01:57:09;;;;;;;0.55;0.55;;;14.80;99.90;;;;;;5075203;22;20045;-77
2022/07/19 01:59:40;;;;;;;0.43;0.40;;;14.70;99.90;;;;;;5062183;28;20061;-77
2022/07/19 02:02:07;;;;;;;3.97;0.82;;;14.70;99.90;;;;;;5060638;28;20025;-78
2022/07/19 02:04:32;;;;;;;0.63;0.52;;;14.60;99.90;;;;;;5058042;28;20064;-75
2022/07/19 02:06:58;;;;;;;0.43;0.35;;;14.60;99.90;;;;;;5075966;28;20045;-74
2022/07/19 02:09:24;;;;;;;1.95;0.98;;;14.70;99.90;;;;;;5077742;28;20052;-75
2022/07/19 02:11:50;;;;;;;0.47;0.47;;;14.70;99.90;;;;;;5075688;28;20068;-76
2022/07/19 02:14:16;;;;;;;2.50;1.27;;;14.60;99.90;;;;;;5067368;28;20030;-75
2022/07/19 02:16:42;;;;;;;0.73;0.32;;;14.50;99.90;;;;;;5055393;28;20096;-77
2022/07/19 02:19:08;;;;;;;1.15;1.02;;;14.50;99.90;;;;;;5054247;28;20033;-76
2022/07/19 02:21:35;;;;;;;1.63;0.88;;;14.50;99.90;;;;;;5058778;28;20249;-74
2022/07/19 02:24:01;;;;;;;1.75;1.17;;;14.50;99.90;;;;;;5054351;28;20041;-74
2022/07/19 02:26:27;;;;;;;2.75;1.30;;;14.50;99.90;;;;;;5053139;28;20411;-75
2022/07/19 02:28:53;;;;;;;13.60;2.30;;;14.40;99.90;;;;;;5051610;28;20032;-75
2022/07/19 02:31:19;;;;;;;2.22;1.77;;;14.40;99.90;;;;;;5049486;28;20458;-75
2022/07/19 02:33:44;;;;;;;5.38;1.98;;;14.10;99.90;;;;;;5053544;28;20053;-73
2022/07/19 02:36:10;;;;;;;0.30;0.30;;;14.30;99.90;;;;;;5054667;28;20041;-73
2022/07/19 02:38:36;;;;;;;1.48;1.20;;;14.30;99.90;;;;;;5054378;28;20040;-73
2022/07/19 02:41:01;;;;;;;2.92;1.17;;;14.30;99.90;;;;;;5053995;28;20045;-74
2022/07/19 02:43:27;;;;;;;0.80;0.73;;;14.30;99.90;;;;;;5052340;28;20041;-75
2022/07/19 02:45:53;;;;;;;0.93;0.75;;;14.30;99.90;;;;;;5053189;28;20032;-74
2022/07/19 02:48:18;;;;;;;1.02;0.55;;;14.20;99.90;;;;;;5053546;28;20041;-73
2022/07/19 02:50:44;;;;;;;2.05;1.08;;;14.40;99.90;;;;;;5053626;28;20040;-74
2022/07/19 02:53:10;;;;;;;2.00;1.02;;;14.30;99.90;;;;;;5053690;28;20550;-74
2022/07/19 02:55:36;;;;;;;4.93;0.82;;;14.20;99.90;;;;;;5053781;28;20051;-74
2022/07/19 02:58:02;;;;;;;1.23;0.80;;;14.30;99.90;;;;;;5070097;28;20406;-73
2022/07/19 03:00:27;;;;;;;0.75;0.75;;;14.20;99.90;;;;;;5073950;28;20052;-73
2022/07/19 03:02:53;;;;;;;0.50;0.43;;;14.20;99.90;;;;;;5073360;28;20114;-74
2022/07/19 03:05:19;;;;;;;0.47;0.35;;;14.10;99.90;;;;;;5071944;28;20051;-74
2022/07/19 03:07:44;;;;;;;0.17;0.17;;;14.00;99.90;;;;;;5073329;28;20051;-75
2022/07/19 03:10:10;;;;;;;1.95;1.00;;;14.10;99.90;;;;;;5073071;28;20040;-75
2022/07/19 03:12:36;;;;;;;0.22;0.22;;;14.20;99.90;;;;;;5072416;28;20131;-74
2022/07/19 03:15:02;;;;;;;0.95;0.63;;;14.40;99.90;;;;;;5072503;28;20090;-75
2022/07/19 03:17:28;;;;;;;0.40;0.20;;;14.30;99.90;;;;;;5052496;28;20124;-75
2022/07/19 03:19:53;;;;;;;0.30;0.30;;;14.40;99.90;;;;;;5054097;28;20428;-75
2022/07/19 03:22:19;;;;;;;0.77;0.68;;;14.50;99.90;;;;;;5053585;28;20037;-74
2022/07/19 03:24:44;;;;;;;0.10;0.10;;;14.50;99.90;;;;;;5055043;28;20069;-74
2022/07/19 03:27:10;;;;;;;1.90;1.13;;;14.50;99.90;;;;;;5054053;28;20491;-73
2022/07/19 03:29:36;;;;;;;0.13;0.13;;;14.60;99.90;;;;;;5053602;28;20068;-74
2022/07/19 03:32:01;;;;;;;1.27;0.75;;;14.60;99.90;;;;;;5035956;28;20041;-74
2022/07/19 03:34:28;;;;;;;1.40;0.73;;;14.60;99.90;;;;;;5054013;28;20044;-73
2022/07/19 03:36:54;;;;;;;1.20;0.88;;;14.50;99.90;;;;;;5069445;28;20075;-74
2022/07/19 03:39:20;;;;;;;0.65;0.57;;;14.50;99.90;;;;;;5073102;28;20458;-74
2022/07/19 03:41:45;;;;;;;1.25;1.00;;;14.20;99.90;;;;;;5073925;28;20123;-74
2022/07/19 03:44:11;;;;;;;0.80;0.65;;;14.10;99.90;;;;;;5073788;28;20106;-74
2022/07/19 03:46:40;;;;;;;4.03;1.55;;;14.10;99.90;;;;;;5060878;28;20127;-74
2022/07/19 03:49:05;;;;;;;1.50;1.25;;;14.20;99.90;;;;;;5053344;28;20080;-75
2022/07/19 03:51:31;;;;;;;1.10;0.70;;;14.30;99.90;;;;;;5053826;28;20045;-73
2022/07/19 03:53:57;;;;;;;1.80;1.05;;;14.20;99.90;;;;;;5053241;28;20064;-74
2022/07/19 03:56:22;;;;;;;1.73;1.08;;;14.30;99.90;;;;;;5063641;28;20098;-74
2022/07/19 03:58:49;;;;;;;5.38;0.80;;;14.90;99.90;;;;;;5074244;28;20072;-74
2022/07/19 04:01:15;;;;;;;0.75;0.68;;;14.40;99.90;;;;;;5057776;28;20462;-74
2022/07/19 04:03:44;;;;;;;0.65;0.52;;;14.30;99.90;;;;;;5057564;28;20086;-75
2022/07/19 04:06:11;;;;;;;4.32;1.38;;;14.40;99.90;;;;;;5056642;28;20045;-75
2022/07/19 04:08:39;;;;;;;0.28;0.22;;;14.30;99.90;;;;;;5057682;28;20045;-75
2022/07/19 04:11:05;;;;;;;0.43;0.38;;;14.30;99.90;;;;;;5077300;28;20040;-74
2022/07/19 04:13:35;;;;;;;0.63;0.60;;;14.30;99.90;;;;;;5076518;28;20052;-73
2022/07/19 04:16:01;;;;;;;0.68;0.55;;;14.40;99.90;;;;;;5067678;28;20033;-74
2022/07/19 04:18:26;;;;;;;1.30;0.80;;;14.70;99.90;;;;;;5056991;28;20120;-73
2022/07/19 04:20:52;;;;;;;2.97;1.48;;;14.60;99.90;;;;;;5073219;28;20051;-74
2022/07/19 04:23:17;;;;;;;4.78;1.70;;;14.60;99.90;;;;;;5077559;28;20460;-74
2022/07/19 04:25:43;;;;;;;1.13;0.55;;;14.60;99.90;;;;;;5070233;28;20044;-73
2022/07/19 04:28:08;;;;;;;0.63;0.43;;;14.70;99.90;;;;;;5069049;28;20039;-77
2022/07/19 04:30:34;;;;;;;3.72;1.33;;;14.70;99.90;;;;;;5049731;28;20041;-74
2022/07/19 04:33:00;;;;;;;9.88;1.88;;;14.70;99.90;;;;;;5057185;28;20488;-74
2022/07/19 04:35:25;;;;;;;3.40;1.00;;;14.70;99.90;;;;;;5057807;28;20037;-73
2022/07/19 04:37:51;;;;;;;1.50;0.88;;;14.80;99.90;;;;;;5057980;28;20483;-74
2022/07/19 04:40:17;;;;;;;2.22;0.93;;;14.80;99.90;;;;;;5057065;28;20041;-74
2022/07/19 04:42:42;;;;;;;1.20;0.95;;;15.00;99.90;;;;;;5057059;28;20041;-74
2022/07/19 04:45:08;;;;;;;0.50;0.50;;;15.00;99.90;;;;;;5057696;28;20045;-74
2022/07/19 04:47:34;;;;;;;0.20;0.20;;;15.20;99.90;;;;;;5063456;28;20416;-74
2022/07/19 04:49:59;;;;;;;1.20;0.65;;;15.30;99.90;;;;;;5076528;28;20040;-74
2022/07/19 04:52:25;;;;;;;0.95;0.80;;;15.40;99.90;;;;;;5069266;28;20051;-73
2022/07/19 04:54:51;;;;;;;1.20;0.50;;;15.60;99.90;;;;;;5057194;28;20048;-74
2022/07/19 04:57:16;;;;;;;0.35;0.28;;;15.90;99.90;;;;;;5056364;28;20056;-75
2022/07/19 04:59:42;;;;;;;2.78;1.67;;;16.30;99.90;;;;;;5053422;28;20486;-76
2022/07/19 05:02:07;;;;;;;1.60;0.82;;;16.60;99.90;;;;;;5053169;28;20048;-75
2022/07/19 05:04:33;;;;;;;3.03;1.33;;;17.10;99.90;;;;;;5054894;28;20064;-73
2022/07/19 05:06:59;;;;;;;0.63;0.52;;;17.60;99.90;;;;;;5055667;28;20090;-74
2022/07/19 05:09:26;;;;;;;0.38;0.30;;;18.00;99.90;;;;;;5056569;28;20400;-74
2022/07/19 05:11:52;;;;;;;1.75;1.13;;;18.60;99.90;;;;;;5054912;28;20049;-74
2022/07/19 05:14:19;;;;;;;0.30;0.30;;;19.10;99.90;;;;;;5054400;28;20045;-74
2022/07/19 05:16:45;;;;;;;0.45;0.45;;;19.60;99.90;;;;;;5065431;28;20052;-75
2022/07/19 05:19:11;;;;;;;0.55;0.50;;;19.80;99.90;;;;;;5074295;28;20148;-74
2022/07/19 05:21:37;;;;;;;0.90;0.88;;;19.90;99.90;;;;;;5072652;28;20072;-73
2022/07/19 05:24:03;;;;;;;1.05;0.82;;;19.90;99.90;;;;;;5074344;28;20044;-73
2022/07/19 05:26:30;;;;;;;1.40;0.85;;;20.00;99.90;;;;;;5076196;28;20052;-75
2022/07/19 05:28:55;;;;;;;0.82;0.55;;;20.20;99.90;;;;;;5076634;28;20051;-74
2022/07/19 05:31:21;;;;;;;1.15;0.88;;;20.40;99.90;;;;;;5077940;28;20044;-74
2022/07/19 05:33:47;;;;;;;1.02;0.75;;;20.60;99.90;;;;;;5075328;28;20052;-74
2022/07/19 05:36:12;;;;;;;2.08;1.38;;;21.00;99.90;;;;;;5077964;28;20037;-74
2022/07/19 05:38:38;;;;;;;1.45;0.95;;;21.10;99.90;;;;;;5093271;28;20096;-76
2022/07/19 05:41:09;;;;;;;0.50;0.40;;;21.30;99.90;;;;;;5089776;28;20080;-75
2022/07/19 05:43:36;;;;;;;1.83;0.65;;;21.40;99.90;;;;;;5092150;28;20044;-74
2022/07/19 05:46:02;;;;;;;1.48;1.10;;;21.60;99.90;;;;;;5085463;28;20115;-73
2022/07/19 05:48:28;;;;;;;1.30;0.93;;;21.80;99.90;;;;;;5077222;28;20042;-74
2022/07/19 05:50:54;;;;;;;1.50;0.98;;;22.10;99.90;;;;;;5077697;28;20441;-75
2022/07/19 05:53:19;;;;;;;0.98;0.85;;;22.50;99.90;;;;;;5076295;28;20036;-75
2022/07/19 05:55:45;;;;;;;2.67;1.40;;;22.60;99.90;;;;;;5079501;28;20044;-76
2022/07/19 05:58:11;;;;;;;1.40;0.65;;;22.60;99.90;;;;;;5079387;28;20071;-75
2022/07/19 06:00:37;;;;;;;0.68;0.55;;;22.60;99.90;;;;;;5077775;28;20045;-74
2022/07/19 06:03:03;;;;;;;3.58;0.98;;;22.90;99.90;;;;;;5079149;28;20109;-75
2022/07/19 06:05:29;;;;;;;7.35;1.48;;;23.20;99.90;;;;;;5078362;28;20040;-74
2022/07/19 06:07:54;;;;;;;1.35;0.50;;;23.50;99.90;;;;;;5077921;28;20047;-76
2022/07/19 06:10:20;;;;;;;2.45;0.80;;;24.10;99.90;;;;;;5076911;28;20390;-75
2022/07/19 06:12:46;;;;;;;0.57;0.30;;;24.70;99.90;;;;;;5078638;28;20101;-75
2022/07/19 06:15:12;;;;;;;1.17;0.70;;;25.00;88.20;;;;;;5077963;28;20120;-74
2022/07/19 06:17:41;;;;;;;0.50;0.45;;;24.40;94.10;;;;;;5083138;28;20052;-75
2022/07/19 06:20:07;;;;;;;0.40;0.32;;;25.90;71.70;;;;;;5098044;28;20040;-76
2022/07/19 06:22:33;;;;;;;0.32;0.20;;;26.20;67.90;;;;;;5084239;28;20029;-77
2022/07/19 06:24:58;;;;;;;0.68;0.52;;;26.20;61.30;;;;;;5069411;28;20113;-75
2022/07/19 06:27:24;;;;;;;1.15;0.88;;;26.70;40.30;;;;;;5057189;28;20037;-75
2022/07/19 06:29:50;;;;;;;1.25;0.82;;;27.10;40.30;;;;;;5074253;28;20048;-75
2022/07/19 06:32:15;;;;;;;0.25;0.20;;;27.70;45.60;;;;;;5077267;28;20109;-74
2022/07/19 06:34:41;;;;;;;5.20;0.80;;;27.30;15.10;;;;;;5077409;28;20080;-74
2022/07/19 06:37:07;;;;;;;1.63;1.02;;;27.60;21.30;;;;;;5070993;28;20060;-73
2022/07/19 06:39:32;;;;;;;1.60;0.95;;;27.90;12.20;;;;;;5059534;28;20124;-74
2022/07/19 06:41:58;;;;;;;1.05;0.50;;;28.10;14.20;;;;;;5059988;28;20049;-73
2022/07/19 06:44:24;;;;;;;2.80;1.25;;;28.30;20.00;;;;;;5059090;28;20063;-73
2022/07/19 06:46:49;;;;;;;0.28;0.25;;;28.10;5.20;;;;;;5054818;28;20037;-73
2022/07/19 06:49:15;;;;;;;0.35;0.15;;;28.20;7.10;;;;;;5052836;28;20052;-73
2022/07/19 06:51:40;;;;;;;2.22;1.20;;;29.10;5.50;;;;;;5050865;28;20045;-73
2022/07/19 06:54:06;;;;;;;0.43;0.28;;;28.40;2.00;;;;;;5050588;28;20049;-75
2022/07/19 06:56:32;;;;;;;1.55;0.68;;;28.70;2.90;;;;;;5049922;28;20445;-73
2022/07/19 06:58:57;;;;;;;0.20;0.20;;;29.10;1.80;;;;;;5050512;28;20041;-72
2022/07/19 07:01:23;;;;;;;0.38;0.32;;;28.80;1.50;;;;;;5048957;28;20036;-74
2022/07/19 07:03:48;;;;;;;0.20;0.20;;;29.20;5.20;;;;;;5050300;28;20083;-73
2022/07/19 07:06:14;;;;;;;0.30;0.25;;;29.60;1.00;;;;;;5030163;28;20069;-74
2022/07/19 07:08:40;;;;;;;1.02;0.80;;;29.70;1.00;;;;;;5030480;28;20042;-74
2022/07/19 07:11:05;;;;;;;6.75;0.63;;;30.10;1.00;;;;;;5031465;28;20076;-73
2022/07/19 07:13:31;;;;;;;1.17;0.70;;;29.60;1.00;;;;;;5046177;28;20048;-74
2022/07/19 07:15:57;;;;;;;0.13;0.13;;;30.00;1.00;;;;;;5051735;28;20051;-75
2022/07/19 07:18:22;;;;;;;0.75;0.40;;;30.60;1.00;;;;;;5051652;28;20391;-74
2022/07/19 07:20:48;;;;;;;0.63;0.47;;;31.10;1.00;;;;;;5054968;28;20045;-74
2022/07/19 07:23:13;;;;;;;0.43;0.40;;;31.40;1.00;;;;;;5051956;28;20045;-75
2022/07/19 07:25:39;;;;;;;2.15;0.70;;;30.30;1.00;;;;;;5051896;28;20500;-73
2022/07/19 07:28:06;;;;;;;0.75;0.45;;;30.80;1.00;;;;;;5051654;28;20040;-73
2022/07/19 07:30:32;;;;;;;0.13;0.10;;;31.20;1.00;;;;;;5050705;28;20091;-74
2022/07/19 07:32:57;;;;;;;3.03;0.80;;;31.60;1.00;;;;;;5051717;28;20048;-74
2022/07/19 07:35:23;;;;;;;14.27;1.33;;;31.40;1.00;;;;;;5055301;28;20056;-74
2022/07/19 07:37:49;;;;;;;1.73;0.68;;;31.50;1.00;;;;;;5055194;28;20198;-74
2022/07/19 07:40:14;;;;;;;0.30;0.25;;;31.00;1.00;;;;;;5054418;28;20037;-74
2022/07/19 07:42:40;;;;;;;1.23;0.57;;;31.10;1.00;;;;;;5054003;28;20036;-74
2022/07/19 07:45:07;;;;;;;1.52;0.90;;;31.40;1.00;;;;;;5054170;28;20043;-74
2022/07/19 07:47:32;;;;;;;1.10;0.73;;;31.80;1.00;;;;;;5054632;28;20064;-75
2022/07/19 07:49:58;;;;;;;1.27;0.85;;;32.40;1.00;;;;;;5052581;28;20037;-73
2022/07/19 07:52:24;;;;;;;1.92;0.65;;;32.30;1.00;;;;;;5054272;28;20048;-74
2022/07/19 07:54:50;;;;;;;2.58;0.73;;;32.60;1.00;;;;;;5053000;28;20175;-73
2022/07/19 07:57:29;;;;;;;0.63;0.32;;;32.60;1.00;;;;;;5054060;28;20065;-74
2022/07/19 07:59:58;;;;;;;0.77;0.52;;;32.40;1.00;;;;;;5053835;28;20059;-73
2022/07/19 08:02:23;;;;;;;0.52;0.52;;;32.40;1.00;;;;;;5054216;28;20487;-73
2022/07/19 08:04:49;;;;;;;0.22;0.15;;;32.60;1.00;;;;;;5054454;28;20044;-74
2022/07/19 08:07:15;;;;;;;0.40;0.13;;;31.90;1.00;;;;;;5054821;28;20036;-76
2022/07/19 08:09:45;;;;;;;0.43;0.32;;;32.10;1.00;;;;;;5054217;28;20059;-73
2022/07/19 08:12:11;;;;;;;0.98;0.65;;;32.60;1.00;;;;;;5054067;28;20048;-74
2022/07/19 08:14:36;;;;;;;0.30;0.30;;;32.90;1.00;;;;;;5053795;28;20049;-73
2022/07/19 08:17:02;;;;;;;0.28;0.28;;;33.40;1.00;;;;;;5053591;28;20033;-74
2022/07/19 08:19:28;;;;;;;0.77;0.57;;;34.30;1.00;;;;;;5053522;28;20152;-74
2022/07/19 08:21:53;;;;;;;0.85;0.65;;;34.30;1.00;;;;;;5053837;28;20037;-74
2022/07/19 08:24:19;;;;;;;0.20;0.15;;;34.40;1.00;;;;;;5054142;28;20505;-74
2022/07/19 08:26:44;;;;;;;0.22;0.22;;;34.60;1.00;;;;;;5053813;28;20052;-74
2022/07/19 08:29:10;;;;;;;0.20;0.10;;;34.90;1.00;;;;;;5053893;28;20032;-74
2022/07/19 08:31:36;;;;;;;1.88;1.02;;;34.40;1.00;;;;;;5054014;28;20044;-73
2022/07/19 08:34:01;;;;;;;1.00;0.30;;;35.20;1.00;;;;;;5054009;28;20435;-74
2022/07/19 08:36:27;;;;;;;6.70;0.95;;;35.80;1.00;;;;;;5053048;28;20041;-73
2022/07/19 08:38:52;;;;;;;0.32;0.32;;;35.80;1.00;;;;;;5053530;28;20052;-75
2022/07/19 08:41:20;;;;;;;0.22;0.20;;;36.80;1.00;;;;;;5036288;28;20041;-75
2022/07/19 08:43:49;;;;;;;0.60;0.32;;;37.10;1.00;;;;;;5053529;28;20075;-74
2022/07/19 08:46:14;;;;;;;1.02;0.35;;;36.60;1.00;;;;;;5054306;28;20087;-74
2022/07/19 08:48:41;;;;;;;0.38;0.38;;;36.90;1.00;;;;;;5053706;28;20068;-74
2022/07/19 08:51:07;;;;;;;0.47;0.45;;;35.50;1.00;;;;;;5054230;28;20080;-73
2022/07/19 08:53:37;;;;;;;0.75;0.32;;;35.70;1.00;;;;;;5054085;28;20442;-73
2022/07/19 08:57:56;;;;;;;0.00;0.00;;;36.10;1.00;;;;;;5054110;28;20057;-73
2022/07/19 08:58:49;;;;;;;0.10;0.10;;;36.70;1.00;;;;;;5056670;28;20099;-74
2022/07/19 09:01:14;;;;;;;0.10;0.10;;;36.00;1.00;;;;;;5058093;28;20048;-74
2022/07/19 09:04:06;;;;;;;0.90;0.35;;;36.10;1.00;;;;;;5054553;28;20043;-74
2022/07/19 09:06:43;;;;;;;0.10;0.10;;;36.50;1.00;;;;;;5052891;28;20071;-73
2022/07/19 09:09:10;;;;;;;0.80;0.40;;;36.40;1.00;;;;;;5053151;28;20052;-73
2022/07/19 09:11:38;;;;;;;0.70;0.45;;;36.40;1.00;;;;;;5052340;28;20045;-72
2022/07/19 09:14:09;;;;;;;0.28;0.28;;;36.40;1.00;;;;;;5046084;28;20779;-72
2022/07/19 09:16:55;;;;;;;1.20;0.68;;;36.90;1.00;;;;;;5054052;28;20168;-74
2022/07/19 09:19:22;;;;;;;0.85;0.43;;;36.30;1.00;;;;;;5054348;28;20116;-74
2022/07/19 09:22:06;;;;;;;0.10;0.10;;;35.60;1.00;;;;;;5054327;28;20449;-73
2022/07/19 09:24:39;;;;;;;0.00;0.00;;;35.90;1.00;;;;;;5054906;28;20473;-74
2022/07/19 09:27:06;;;;;;;0.43;0.20;;;36.50;1.00;;;;;;5055325;28;20107;-73
2022/07/19 09:29:33;;;;;;;0.30;0.25;;;37.40;1.00;;;;;;5055301;28;20111;-74
2022/07/19 09:32:21;;;;;;;0.00;0.00;;;37.00;1.00;;;;;;5055155;28;20462;-73
2022/07/19 09:35:03;;;;;;;0.30;0.10;;;36.30;1.00;;;;;;5054148;28;20057;-73
2022/07/19 09:37:32;;;;;;;0.10;0.10;;;36.60;1.00;;;;;;5053409;28;20049;-73
2022/07/19 09:40:00;;;;;;;0.00;0.00;;;35.40;1.00;;;;;;5055019;28;20059;-74
2022/07/19 09:42:39;;;;;;;0.35;0.30;;;35.40;1.00;;;;;;5054876;28;20415;-73
2022/07/19 09:45:07;;;;;;;0.43;0.20;;;35.70;1.00;;;;;;5054560;28;20484;-73
2022/07/19 09:47:35;;;;;;;0.00;0.00;;;35.70;1.00;;;;;;5054887;28;20048;-73
2022/07/19 09:50:07;;;;;;;0.20;0.20;;;35.70;1.00;;;;;;5055528;28;20045;-74
2022/07/19 09:52:36;;;;;;;0.75;0.32;;;36.20;1.00;;;;;;5055667;28;20045;-73
2022/07/19 09:55:04;;;;;;;0.40;0.40;;;36.30;1.00;;;;;;5055370;28;20048;-73
2022/07/19 09:57:35;;;;;;;0.00;0.00;;;36.40;1.00;;;;;;5054592;28;20488;-73
2022/07/19 10:00:02;;;;;;;0.50;0.30;;;36.30;1.00;;;;;;5054943;28;20044;-73
2022/07/19 10:02:29;;;;;;;0.25;0.10;;;36.70;1.00;;;;;;5070170;28;20180;-73
2022/07/19 10:04:57;;;;;;;0.57;0.40;;;36.20;1.00;;;;;;5054422;28;20483;-73
2022/07/19 10:07:23;;;;;;;0.22;0.22;;;36.20;1.00;;;;;;5054555;28;20123;-73
2022/07/19 10:09:50;;;;;;;0.10;0.10;;;35.90;1.00;;;;;;5054521;28;20053;-73
2022/07/19 10:12:16;;;;;;;0.30;0.30;;;36.10;1.00;;;;;;5054551;28;20056;-73
2022/07/19 10:14:42;;;;;;;0.38;0.30;;;35.40;1.00;;;;;;5053192;28;20044;-75
2022/07/19 10:17:28;;;;;;;0.20;0.20;;;35.40;1.00;;;;;;5054150;28;20483;-74
2022/07/19 10:19:55;;;;;;;0.10;0.10;;;35.40;1.00;;;;;;5053986;28;20087;-73
2022/07/19 10:22:25;;;;;;;0.22;0.22;;;35.70;1.00;;;;;;5053736;28;20108;-74
2022/07/19 10:24:56;;;;;;;0.57;0.43;;;35.30;1.00;;;;;;5053649;28;20380;-73
2022/07/19 10:27:24;;;;;;;0.35;0.20;;;35.20;1.00;;;;;;5053672;28;20464;-73
2022/07/19 10:30:11;;;;;;;0.65;0.32;;;35.00;1.00;;;;;;5053803;28;20072;-74
2022/07/19 10:32:39;;;;;;;0.40;0.35;;;34.90;1.00;;;;;;5036112;28;20048;-73
2022/07/19 10:35:18;;;;;;;1.27;0.55;;;34.80;1.00;;;;;;5053770;28;20491;-74
2022/07/19 10:37:46;;;;;;;0.40;0.40;;;35.50;1.00;;;;;;5054696;28;20049;-74
2022/07/19 10:40:12;;;;;;;1.85;0.88;;;35.60;1.00;;;;;;5037631;28;20076;-74
2022/07/19 10:43:03;;;;;;;0.45;0.45;;;35.40;1.00;;;;;;5054690;28;20076;-73
2022/07/19 10:45:30;;;;;;;1.45;0.52;;;35.80;1.00;;;;;;5053965;28;20059;-73
2022/07/19 10:48:03;;;;;;;1.10;0.82;;;36.40;1.00;;;;;;5053217;28;20466;-74
2022/07/19 10:50:48;;;;;;;0.05;0.05;;;36.70;1.00;;;;;;5052348;28;20095;-74
2022/07/19 10:53:33;;;;;;;;;;;36.80;1.00;;;;;;5053626;28;20037;-73
2022/07/19 10:56:18;;;;;;;0.40;0.25;;;36.00;1.00;;;;;;5052221;28;19928;-73
2022/07/19 10:58:48;;;;;;;0.73;0.22;;;35.80;1.00;;;;;;5053175;28;20049;-74
2022/07/19 11:01:16;;;;;;;0.10;0.10;;;35.70;1.00;;;;;;5053365;28;20051;-73
2022/07/19 11:03:42;;;;;;;0.40;0.17;;;35.60;1.00;;;;;;5052836;28;20083;-74
2022/07/19 11:06:07;;;;;;;0.73;0.43;;;35.90;1.00;;;;;;5053023;28;20045;-73
2022/07/19 11:08:38;;;;;;;0.63;0.32;;;36.60;1.00;;;;;;5053025;28;20048;-74
2022/07/19 11:11:09;;;;;;;0.45;0.30;;;36.90;1.00;;;;;;5053136;28;20095;-73
2022/07/19 11:13:37;;;;;;;0.32;0.32;;;36.60;1.00;;;;;;5053432;28;20045;-72
2022/07/19 11:16:04;;;;;;;0.20;0.20;;;36.40;1.00;;;;;;5052976;28;20045;-74
2022/07/19 11:18:33;;;;;;;0.60;0.47;;;36.10;1.00;;;;;;5053056;28;20041;-72
2022/07/19 11:21:03;;;;;;;0.63;0.50;;;36.00;1.00;;;;;;5053291;28;20064;-73
2022/07/19 11:23:31;;;;;;;0.22;0.22;;;35.90;1.00;;;;;;5052917;28;20120;-73
2022/07/19 11:26:09;;;;;;;0.35;0.35;;;36.90;1.00;;;;;;5052726;28;20522;-74
2022/07/19 11:28:36;;;;;;;1.35;0.35;;;37.30;1.00;;;;;;5052811;28;20077;-73
2022/07/19 11:31:23;;;;;;;1.38;0.47;;;38.20;1.00;;;;;;5052534;28;20396;-74
2022/07/19 11:33:53;;;;;;;0.57;0.52;;;38.70;1.00;;;;;;5052751;28;20033;-73
2022/07/19 11:36:19;;;;;;;0.85;0.52;;;39.10;1.00;;;;;;5052450;28;20037;-74
2022/07/19 11:38:51;;;;;;;0.30;0.13;;;39.10;1.00;;;;;;5050210;28;20045;-74
2022/07/19 11:41:22;;;;;;;0.32;0.22;;;38.00;1.00;;;;;;5048956;28;20041;-74
2022/07/19 11:43:59;;;;;;;0.20;0.20;;;38.30;1.00;;;;;;5049832;28;20041;-73
2022/07/19 11:46:29;;;;;;;0.63;0.32;;;39.30;1.00;;;;;;5049289;28;20045;-74
2022/07/19 11:48:57;;;;;;;0.63;0.38;;;39.50;1.00;;;;;;5049688;28;20365;-72
2022/07/19 11:51:23;;;;;;;0.25;0.20;;;40.10;1.00;;;;;;5048174;28;20045;-73
2022/07/19 11:53:54;;;;;;;0.35;0.20;;;41.10;1.00;;;;;;5049051;28;20048;-72
2022/07/19 11:56:22;;;;;;;0.57;0.38;;;41.30;1.00;;;;;;5051156;28;20048;-74
2022/07/19 11:58:51;;;;;;;1.55;0.85;;;41.30;1.00;;;;;;5051097;28;20045;-74
2022/07/19 12:01:27;;;;;;;0.13;0.08;;;41.80;1.00;;;;;;5051111;28;20430;-74
2022/07/19 12:04:04;;;;;;;0.05;0.03;;;41.40;1.00;;;;;;5048095;28;20178;-73
2022/07/19 12:06:37;;;;;;;0.00;0.00;;;42.30;1.00;;;;;;5054047;28;20140;-72
2022/07/19 12:09:08;;;;;;;0.63;0.28;;;42.50;1.00;;;;;;5054156;28;20045;-73
2022/07/19 12:11:52;;;;;;;0.75;0.43;;;42.20;1.00;;;;;;5051872;28;20079;-74
2022/07/19 12:14:24;;;;;;;0.05;0.05;;;41.50;1.00;;;;;;5051002;28;20045;-73
2022/07/19 12:17:16;;;;;;;0.82;0.60;;;41.70;1.00;;;;;;5051803;28;20040;-74
2022/07/19 12:19:52;;;;;;;0.22;0.17;;;42.30;1.00;;;;;;5053220;28;20095;-74
2022/07/19 12:22:39;;;;;;;1.48;0.45;;;42.40;1.00;;;;;;5055319;28;20052;-73
2022/07/19 12:25:08;;;;;;;0.52;0.40;;;42.40;1.00;;;;;;5054586;28;20503;-73
2022/07/19 12:27:35;;;;;;;1.42;0.65;;;40.00;1.00;;;;;;5055033;28;20052;-73
2022/07/19 12:30:02;;;;;;;0.00;0.00;;;40.90;1.00;;;;;;5055661;28;20033;-73
2022/07/19 12:32:32;;;;;;;0.17;0.13;;;41.70;1.00;;;;;;5056122;28;20049;-73
2022/07/19 12:35:03;;;;;;;0.22;0.22;;;41.90;1.00;;;;;;5055709;28;20462;-73
2022/07/19 12:37:37;;;;;;;1.38;0.47;;;42.70;1.00;;;;;;5055780;28;20075;-73
2022/07/19 12:40:05;;;;;;;0.35;0.30;;;43.20;1.00;;;;;;5054099;28;20072;-74
2022/07/19 12:42:59;;;;;;;0.20;0.15;;;43.00;1.00;;;;;;5054938;28;20053;-73
2022/07/19 12:45:39;;;;;;;0.82;0.65;;;43.60;1.00;;;;;;5054391;28;20453;-73
2022/07/19 12:48:05;;;;;;;0.20;0.20;;;43.30;1.00;;;;;;5055447;28;20036;-73
2022/07/19 12:50:34;;;;;;;0.40;0.20;;;43.30;1.00;;;;;;5055341;28;20120;-72
2022/07/19 12:53:02;;;;;;;1.30;0.95;;;43.10;1.00;;;;;;5055341;28;20041;-74
2022/07/19 12:55:29;;;;;;;0.30;0.20;;;42.50;1.00;;;;;;5055469;28;20037;-73